sensor_id;sensor_type;location;lat;lon;timestamp;pressure;altitude;pressure_sealevel;temperature;humidity
60642;BME280;46837;52.446;-1.930;2023-11-19T00:00:09;99050.29;;;11.23;78.15
60642;BME280;46837;52.446;-1.930;2023-11-19T00:01:09;99041.60;;;11.23;78.18
60642;BME280;46837;52.446;-1.930;2023-11-19T00:02:09;99044.53;;;11.23;78.33
60642;BME280;46837;52.446;-1.930;2023-11-19T00:03:09;99046.07;;;11.22;78.34
60642;BME280;46837;52.446;-1.930;2023-11-19T00:04:09;99045.91;;;11.24;78.35
60642;BME280;46837;52.446;-1.930;2023-11-19T00:05:11;99040.62;;;11.20;78.43
60642;BME280;46837;52.446;-1.930;2023-11-19T00:06:09;99041.32;;;11.21;78.41
60642;BME280;46837;52.446;-1.930;2023-11-19T00:07:09;99040.55;;;11.21;78.45
60642;BME280;46837;52.446;-1.930;2023-11-19T00:08:09;99038.70;;;11.21;78.47
60642;BME280;46837;52.446;-1.930;2023-11-19T00:09:09;99043.95;;;11.21;78.38
60642;BME280;46837;52.446;-1.930;2023-11-19T00:10:09;99042.26;;;11.17;78.47
60642;BME280;46837;52.446;-1.930;2023-11-19T00:11:09;99043.30;;;11.17;78.47
60642;BME280;46837;52.446;-1.930;2023-11-19T00:12:09;99031.92;;;11.15;78.58
60642;BME280;46837;52.446;-1.930;2023-11-19T00:13:09;99038.05;;;11.14;78.59
60642;BME280;46837;52.446;-1.930;2023-11-19T00:14:11;99041.70;;;11.15;78.56
60642;BME280;46837;52.446;-1.930;2023-11-19T00:15:09;99041.56;;;11.16;78.49
60642;BME280;46837;52.446;-1.930;2023-11-19T00:16:09;99034.21;;;11.15;78.56
60642;BME280;46837;52.446;-1.930;2023-11-19T00:17:09;99033.39;;;11.16;78.49
60642;BME280;46837;52.446;-1.930;2023-11-19T00:18:09;99033.83;;;11.15;78.42
60642;BME280;46837;52.446;-1.930;2023-11-19T00:19:09;99034.16;;;11.18;78.36
60642;BME280;46837;52.446;-1.930;2023-11-19T00:20:09;99025.81;;;11.14;78.48
60642;BME280;46837;52.446;-1.930;2023-11-19T00:21:09;99024.04;;;11.16;78.46
60642;BME280;46837;52.446;-1.930;2023-11-19T00:22:09;99022.58;;;11.17;78.28
60642;BME280;46837;52.446;-1.930;2023-11-19T00:23:09;99019.72;;;11.15;78.29
60642;BME280;46837;52.446;-1.930;2023-11-19T00:24:09;99021.81;;;11.17;78.28
60642;BME280;46837;52.446;-1.930;2023-11-19T00:25:09;99020.44;;;11.15;78.21
60642;BME280;46837;52.446;-1.930;2023-11-19T00:26:09;99027.61;;;11.14;78.15
60642;BME280;46837;52.446;-1.930;2023-11-19T00:27:10;99018.97;;;11.14;78.12
60642;BME280;46837;52.446;-1.930;2023-11-19T00:28:09;99008.19;;;11.15;78.15
60642;BME280;46837;52.446;-1.930;2023-11-19T00:29:09;99000.65;;;11.17;78.15
60642;BME280;46837;52.446;-1.930;2023-11-19T00:30:09;99019.36;;;11.16;78.02
60642;BME280;46837;52.446;-1.930;2023-11-19T00:31:09;99008.18;;;11.16;78.00
60642;BME280;46837;52.446;-1.930;2023-11-19T00:32:09;99010.38;;;11.18;77.84
60642;BME280;46837;52.446;-1.930;2023-11-19T00:33:09;99016.65;;;11.19;77.83
60642;BME280;46837;52.446;-1.930;2023-11-19T00:34:09;99005.79;;;11.15;77.99
60642;BME280;46837;52.446;-1.930;2023-11-19T00:35:09;99004.88;;;11.13;77.85
60642;BME280;46837;52.446;-1.930;2023-11-19T00:36:09;99013.67;;;11.14;77.92
60642;BME280;46837;52.446;-1.930;2023-11-19T00:37:09;99010.39;;;11.16;77.81
60642;BME280;46837;52.446;-1.930;2023-11-19T00:38:09;99007.15;;;11.17;77.83
60642;BME280;46837;52.446;-1.930;2023-11-19T00:39:09;99018.81;;;11.17;77.81
60642;BME280;46837;52.446;-1.930;2023-11-19T00:40:09;99008.15;;;11.14;77.75
60642;BME280;46837;52.446;-1.930;2023-11-19T00:41:09;99000.81;;;11.15;77.77
60642;BME280;46837;52.446;-1.930;2023-11-19T00:42:09;99005.24;;;11.15;77.82
60642;BME280;46837;52.446;-1.930;2023-11-19T00:43:09;99006.46;;;11.16;77.67
60642;BME280;46837;52.446;-1.930;2023-11-19T00:44:09;99001.39;;;11.19;77.69
60642;BME280;46837;52.446;-1.930;2023-11-19T00:45:12;98993.98;;;11.20;77.53
60642;BME280;46837;52.446;-1.930;2023-11-19T00:46:09;99000.52;;;11.19;77.51
60642;BME280;46837;52.446;-1.930;2023-11-19T00:47:09;98994.62;;;11.15;77.60
60642;BME280;46837;52.446;-1.930;2023-11-19T00:48:09;99000.09;;;11.15;77.61
60642;BME280;46837;52.446;-1.930;2023-11-19T00:49:09;99007.12;;;11.13;77.75
60642;BME280;46837;52.446;-1.930;2023-11-19T00:50:09;99014.00;;;11.14;77.80
60642;BME280;46837;52.446;-1.930;2023-11-19T00:51:11;99013.39;;;11.11;77.85
60642;BME280;46837;52.446;-1.930;2023-11-19T00:52:09;99008.31;;;11.08;77.88
60642;BME280;46837;52.446;-1.930;2023-11-19T00:53:09;99025.31;;;11.08;77.94
60642;BME280;46837;52.446;-1.930;2023-11-19T00:54:09;99037.90;;;11.07;77.95
60642;BME280;46837;52.446;-1.930;2023-11-19T00:55:09;99033.57;;;11.08;77.94
60642;BME280;46837;52.446;-1.930;2023-11-19T00:56:10;99030.62;;;11.08;77.95
60642;BME280;46837;52.446;-1.930;2023-11-19T00:57:09;99034.94;;;11.08;77.88
60642;BME280;46837;52.446;-1.930;2023-11-19T00:58:09;99034.62;;;11.10;77.82
60642;BME280;46837;52.446;-1.930;2023-11-19T00:59:09;99028.72;;;11.07;77.92
60642;BME280;46837;52.446;-1.930;2023-11-19T01:00:13;99031.88;;;11.08;77.77
60642;BME280;46837;52.446;-1.930;2023-11-19T01:01:09;99036.09;;;11.11;77.66
60642;BME280;46837;52.446;-1.930;2023-11-19T01:02:09;99037.00;;;11.12;77.72
60642;BME280;46837;52.446;-1.930;2023-11-19T01:03:10;99033.51;;;11.08;77.53
60642;BME280;46837;52.446;-1.930;2023-11-19T01:04:09;99035.80;;;11.12;77.54
60642;BME280;46837;52.446;-1.930;2023-11-19T01:05:09;99053.52;;;11.12;77.63
60642;BME280;46837;52.446;-1.930;2023-11-19T01:06:09;99034.94;;;11.11;77.71
60642;BME280;46837;52.446;-1.930;2023-11-19T01:07:09;99040.41;;;11.16;77.55
60642;BME280;46837;52.446;-1.930;2023-11-19T01:08:09;99046.30;;;11.18;77.64
60642;BME280;46837;52.446;-1.930;2023-11-19T01:09:09;99049.14;;;11.18;77.57
60642;BME280;46837;52.446;-1.930;2023-11-19T01:10:09;99050.99;;;11.19;77.52
60642;BME280;46837;52.446;-1.930;2023-11-19T01:11:09;99047.29;;;11.18;77.61
60642;BME280;46837;52.446;-1.930;2023-11-19T01:12:09;99045.10;;;11.20;77.50
60642;BME280;46837;52.446;-1.930;2023-11-19T01:13:10;99043.46;;;11.20;77.45
60642;BME280;46837;52.446;-1.930;2023-11-19T01:14:09;99045.75;;;11.18;77.66
60642;BME280;46837;52.446;-1.930;2023-11-19T01:15:09;99037.32;;;11.19;77.64
60642;BME280;46837;52.446;-1.930;2023-11-19T01:16:09;99041.59;;;11.19;77.58
60642;BME280;46837;52.446;-1.930;2023-11-19T01:17:09;99044.73;;;11.20;77.72
60642;BME280;46837;52.446;-1.930;2023-11-19T01:18:09;99043.08;;;11.17;77.64
60642;BME280;46837;52.446;-1.930;2023-11-19T01:19:09;99047.02;;;11.17;77.82
60642;BME280;46837;52.446;-1.930;2023-11-19T01:20:09;99039.25;;;11.21;77.82
60642;BME280;46837;52.446;-1.930;2023-11-19T01:21:09;99039.73;;;11.25;77.84
60642;BME280;46837;52.446;-1.930;2023-11-19T01:22:09;99043.67;;;11.27;77.66
60642;BME280;46837;52.446;-1.930;2023-11-19T01:23:09;99039.93;;;11.26;77.59
60642;BME280;46837;52.446;-1.930;2023-11-19T01:24:12;99038.89;;;11.28;77.50
60642;BME280;46837;52.446;-1.930;2023-11-19T01:25:09;99037.63;;;11.32;77.35
60642;BME280;46837;52.446;-1.930;2023-11-19T01:26:12;99038.98;;;11.35;77.45
60642;BME280;46837;52.446;-1.930;2023-11-19T01:27:09;99043.41;;;11.35;77.33
60642;BME280;46837;52.446;-1.930;2023-11-19T01:28:09;99037.13;;;11.38;77.18
60642;BME280;46837;52.446;-1.930;2023-11-19T01:29:09;99046.14;;;11.41;77.21
60642;BME280;46837;52.446;-1.930;2023-11-19T01:30:09;99038.84;;;11.44;77.09
60642;BME280;46837;52.446;-1.930;2023-11-19T01:31:09;99039.41;;;11.44;76.91
60642;BME280;46837;52.446;-1.930;2023-11-19T01:32:09;99036.21;;;11.47;76.98
60642;BME280;46837;52.446;-1.930;2023-11-19T01:33:10;99038.64;;;11.48;76.97
60642;BME280;46837;52.446;-1.930;2023-11-19T01:34:09;99031.85;;;11.48;76.88
60642;BME280;46837;52.446;-1.930;2023-11-19T01:35:09;99039.27;;;11.47;76.99
60642;BME280;46837;52.446;-1.930;2023-11-19T01:36:09;99031.45;;;11.47;77.09
60642;BME280;46837;52.446;-1.930;2023-11-19T01:37:09;99029.87;;;11.49;77.03
60642;BME280;46837;52.446;-1.930;2023-11-19T01:38:09;99037.63;;;11.47;77.14
60642;BME280;46837;52.446;-1.930;2023-11-19T01:39:09;99042.13;;;11.43;77.49
60642;BME280;46837;52.446;-1.930;2023-11-19T01:40:09;99041.76;;;11.45;77.61
60642;BME280;46837;52.446;-1.930;2023-11-19T01:41:09;99030.25;;;11.44;77.71
60642;BME280;46837;52.446;-1.930;2023-11-19T01:42:09;99025.02;;;11.45;77.82
60642;BME280;46837;52.446;-1.930;2023-11-19T01:43:09;99035.06;;;11.44;77.93
60642;BME280;46837;52.446;-1.930;2023-11-19T01:44:09;99033.64;;;11.46;77.89
60642;BME280;46837;52.446;-1.930;2023-11-19T01:45:10;99036.66;;;11.43;77.81
60642;BME280;46837;52.446;-1.930;2023-11-19T01:46:09;99040.65;;;11.41;78.10
60642;BME280;46837;52.446;-1.930;2023-11-19T01:47:09;99031.02;;;11.40;77.95
60642;BME280;46837;52.446;-1.930;2023-11-19T01:48:09;99029.25;;;11.41;77.75
60642;BME280;46837;52.446;-1.930;2023-11-19T01:49:09;99027.59;;;11.42;77.67
60642;BME280;46837;52.446;-1.930;2023-11-19T01:50:11;99038.13;;;11.46;77.76
60642;BME280;46837;52.446;-1.930;2023-11-19T01:51:09;99040.32;;;11.46;77.68
60642;BME280;46837;52.446;-1.930;2023-11-19T01:52:09;99042.11;;;11.47;77.65
60642;BME280;46837;52.446;-1.930;2023-11-19T01:53:09;99046.77;;;11.49;77.71
60642;BME280;46837;52.446;-1.930;2023-11-19T01:54:09;99047.81;;;11.52;77.95
60642;BME280;46837;52.446;-1.930;2023-11-19T01:55:10;99047.97;;;11.49;78.04
60642;BME280;46837;52.446;-1.930;2023-11-19T01:56:09;99048.74;;;11.49;78.24
60642;BME280;46837;52.446;-1.930;2023-11-19T01:57:09;99052.94;;;11.47;78.35
60642;BME280;46837;52.446;-1.930;2023-11-19T01:58:09;99054.02;;;11.51;78.38
60642;BME280;46837;52.446;-1.930;2023-11-19T01:59:09;99046.54;;;11.50;78.42
60642;BME280;46837;52.446;-1.930;2023-11-19T02:00:09;99053.00;;;11.46;78.69
60642;BME280;46837;52.446;-1.930;2023-11-19T02:01:09;99050.33;;;11.41;78.77
60642;BME280;46837;52.446;-1.930;2023-11-19T02:02:09;99039.42;;;11.41;78.70
60642;BME280;46837;52.446;-1.930;2023-11-19T02:03:09;99041.32;;;11.39;78.75
60642;BME280;46837;52.446;-1.930;2023-11-19T02:04:09;99042.45;;;11.41;78.63
60642;BME280;46837;52.446;-1.930;2023-11-19T02:05:09;99040.05;;;11.40;78.57
60642;BME280;46837;52.446;-1.930;2023-11-19T02:06:09;99045.32;;;11.42;78.57
60642;BME280;46837;52.446;-1.930;2023-11-19T02:07:09;99048.98;;;11.42;78.40
60642;BME280;46837;52.446;-1.930;2023-11-19T02:08:09;99042.92;;;11.41;78.49
60642;BME280;46837;52.446;-1.930;2023-11-19T02:09:10;99045.70;;;11.39;78.51
60642;BME280;46837;52.446;-1.930;2023-11-19T02:10:09;99044.54;;;11.40;78.43
60642;BME280;46837;52.446;-1.930;2023-11-19T02:11:09;99042.25;;;11.42;78.40
60642;BME280;46837;52.446;-1.930;2023-11-19T02:12:09;99037.72;;;11.41;78.39
60642;BME280;46837;52.446;-1.930;2023-11-19T02:13:09;99033.34;;;11.39;78.42
60642;BME280;46837;52.446;-1.930;2023-11-19T02:14:09;99027.38;;;11.39;78.34
60642;BME280;46837;52.446;-1.930;2023-11-19T02:15:09;99026.70;;;11.41;78.31
60642;BME280;46837;52.446;-1.930;2023-11-19T02:16:09;99026.33;;;11.42;78.12
60642;BME280;46837;52.446;-1.930;2023-11-19T02:17:24;99016.01;;;11.39;78.08
60642;BME280;46837;52.446;-1.930;2023-11-19T02:19:09;99016.39;;;11.38;78.25
60642;BME280;46837;52.446;-1.930;2023-11-19T02:20:11;99025.01;;;11.40;78.25
60642;BME280;46837;52.446;-1.930;2023-11-19T02:21:09;99026.77;;;11.42;78.13
60642;BME280;46837;52.446;-1.930;2023-11-19T02:22:09;99025.56;;;11.45;78.09
60642;BME280;46837;52.446;-1.930;2023-11-19T02:23:09;99020.09;;;11.42;78.18
60642;BME280;46837;52.446;-1.930;2023-11-19T02:24:10;99019.04;;;11.46;78.14
60642;BME280;46837;52.446;-1.930;2023-11-19T02:26:14;99021.59;;;11.51;77.96
60642;BME280;46837;52.446;-1.930;2023-11-19T02:27:20;99021.59;;;11.51;77.86
60642;BME280;46837;52.446;-1.930;2023-11-19T02:28:09;99023.28;;;11.53;77.96
60642;BME280;46837;52.446;-1.930;2023-11-19T02:29:09;99018.12;;;11.54;77.87
60642;BME280;46837;52.446;-1.930;2023-11-19T02:30:11;99026.74;;;11.55;77.81
60642;BME280;46837;52.446;-1.930;2023-11-19T02:31:09;99026.57;;;11.55;77.93
60642;BME280;46837;52.446;-1.930;2023-11-19T02:32:09;99024.63;;;11.57;77.94
60642;BME280;46837;52.446;-1.930;2023-11-19T02:33:11;99030.87;;;11.59;77.85
60642;BME280;46837;52.446;-1.930;2023-11-19T02:34:10;99025.12;;;11.59;77.84
60642;BME280;46837;52.446;-1.930;2023-11-19T02:35:09;99025.87;;;11.61;77.82
60642;BME280;46837;52.446;-1.930;2023-11-19T02:36:09;99030.58;;;11.61;77.91
60642;BME280;46837;52.446;-1.930;2023-11-19T02:37:09;99033.60;;;11.63;77.83
60642;BME280;46837;52.446;-1.930;2023-11-19T02:38:09;99029.66;;;11.62;77.85
60642;BME280;46837;52.446;-1.930;2023-11-19T02:39:13;99023.46;;;11.61;77.96
60642;BME280;46837;52.446;-1.930;2023-11-19T02:40:09;99029.11;;;11.63;77.85
60642;BME280;46837;52.446;-1.930;2023-11-19T02:41:09;99025.59;;;11.64;77.81
60642;BME280;46837;52.446;-1.930;2023-11-19T02:42:09;99032.18;;;11.62;78.00
60642;BME280;46837;52.446;-1.930;2023-11-19T02:43:09;99032.71;;;11.66;77.86
60642;BME280;46837;52.446;-1.930;2023-11-19T02:44:09;99034.10;;;11.62;77.93
60642;BME280;46837;52.446;-1.930;2023-11-19T02:45:10;99030.34;;;11.65;77.91
60642;BME280;46837;52.446;-1.930;2023-11-19T02:46:11;99032.09;;;11.67;77.78
60642;BME280;46837;52.446;-1.930;2023-11-19T02:47:09;99038.61;;;11.64;77.90
60642;BME280;46837;52.446;-1.930;2023-11-19T02:48:09;99032.25;;;11.67;77.95
60642;BME280;46837;52.446;-1.930;2023-11-19T02:49:09;99029.51;;;11.68;77.88
60642;BME280;46837;52.446;-1.930;2023-11-19T02:50:13;99030.94;;;11.67;77.81
60642;BME280;46837;52.446;-1.930;2023-11-19T02:51:09;99027.66;;;11.69;77.83
60642;BME280;46837;52.446;-1.930;2023-11-19T02:52:09;99024.16;;;11.69;77.90
60642;BME280;46837;52.446;-1.930;2023-11-19T02:53:09;99025.30;;;11.70;77.82
60642;BME280;46837;52.446;-1.930;2023-11-19T02:54:09;99022.98;;;11.71;77.86
60642;BME280;46837;52.446;-1.930;2023-11-19T02:55:12;99017.80;;;11.70;77.78
60642;BME280;46837;52.446;-1.930;2023-11-19T02:56:13;99020.73;;;11.72;77.81
60642;BME280;46837;52.446;-1.930;2023-11-19T02:57:09;99014.22;;;11.71;77.78
60642;BME280;46837;52.446;-1.930;2023-11-19T02:58:15;99015.72;;;11.70;77.80
60642;BME280;46837;52.446;-1.930;2023-11-19T02:59:13;99010.90;;;11.73;77.68
60642;BME280;46837;52.446;-1.930;2023-11-19T03:00:16;99006.74;;;11.70;77.79
60642;BME280;46837;52.446;-1.930;2023-11-19T03:01:13;99010.74;;;11.73;77.76
60642;BME280;46837;52.446;-1.930;2023-11-19T03:02:09;99007.45;;;11.70;77.67
60642;BME280;46837;52.446;-1.930;2023-11-19T03:03:13;99009.85;;;11.71;77.79
60642;BME280;46837;52.446;-1.930;2023-11-19T03:04:09;99012.99;;;11.70;77.75
60642;BME280;46837;52.446;-1.930;2023-11-19T03:05:09;99006.56;;;11.74;77.76
60642;BME280;46837;52.446;-1.930;2023-11-19T03:06:09;99006.77;;;11.74;77.77
60642;BME280;46837;52.446;-1.930;2023-11-19T03:07:09;99012.93;;;11.68;77.59
60642;BME280;46837;52.446;-1.930;2023-11-19T03:08:09;99011.91;;;11.66;77.80
60642;BME280;46837;52.446;-1.930;2023-11-19T03:09:13;99005.28;;;11.67;77.79
60642;BME280;46837;52.446;-1.930;2023-11-19T03:10:12;99003.73;;;11.68;77.68
60642;BME280;46837;52.446;-1.930;2023-11-19T03:11:09;99004.29;;;11.70;77.56
60642;BME280;46837;52.446;-1.930;2023-11-19T03:12:09;99003.63;;;11.70;77.51
60642;BME280;46837;52.446;-1.930;2023-11-19T03:13:11;98995.78;;;11.72;77.43
60642;BME280;46837;52.446;-1.930;2023-11-19T03:14:09;98999.00;;;11.72;77.26
60642;BME280;46837;52.446;-1.930;2023-11-19T03:15:09;98992.94;;;11.74;77.39
60642;BME280;46837;52.446;-1.930;2023-11-19T03:16:09;98995.26;;;11.76;77.29
60642;BME280;46837;52.446;-1.930;2023-11-19T03:17:09;98998.67;;;11.77;77.11
60642;BME280;46837;52.446;-1.930;2023-11-19T03:18:09;98998.06;;;11.77;77.03
60642;BME280;46837;52.446;-1.930;2023-11-19T03:19:09;98995.34;;;11.76;77.17
60642;BME280;46837;52.446;-1.930;2023-11-19T03:20:10;98999.77;;;11.74;77.20
60642;BME280;46837;52.446;-1.930;2023-11-19T03:21:09;99001.58;;;11.74;77.00
60642;BME280;46837;52.446;-1.930;2023-11-19T03:22:09;98998.09;;;11.73;76.96
60642;BME280;46837;52.446;-1.930;2023-11-19T03:23:09;98994.72;;;11.77;76.97
60642;BME280;46837;52.446;-1.930;2023-11-19T03:24:09;98992.86;;;11.78;76.98
60642;BME280;46837;52.446;-1.930;2023-11-19T03:25:11;98994.34;;;11.75;77.09
60642;BME280;46837;52.446;-1.930;2023-11-19T03:26:10;98990.68;;;11.74;77.06
60642;BME280;46837;52.446;-1.930;2023-11-19T03:27:09;98991.33;;;11.75;77.11
60642;BME280;46837;52.446;-1.930;2023-11-19T03:28:09;98984.01;;;11.71;76.97
60642;BME280;46837;52.446;-1.930;2023-11-19T03:29:09;98986.17;;;11.72;77.18
60642;BME280;46837;52.446;-1.930;2023-11-19T03:30:09;98992.84;;;11.73;77.18
60642;BME280;46837;52.446;-1.930;2023-11-19T03:31:11;98991.84;;;11.73;77.21
60642;BME280;46837;52.446;-1.930;2023-11-19T03:32:09;98995.17;;;11.75;77.10
60642;BME280;46837;52.446;-1.930;2023-11-19T03:33:09;98996.25;;;11.75;77.20
60642;BME280;46837;52.446;-1.930;2023-11-19T03:34:09;98993.73;;;11.75;77.41
60642;BME280;46837;52.446;-1.930;2023-11-19T03:35:10;98985.76;;;11.72;77.70
60642;BME280;46837;52.446;-1.930;2023-11-19T03:36:09;98987.30;;;11.68;77.99
60642;BME280;46837;52.446;-1.930;2023-11-19T03:37:09;98988.07;;;11.62;78.33
60642;BME280;46837;52.446;-1.930;2023-11-19T03:38:09;98987.36;;;11.60;78.56
60642;BME280;46837;52.446;-1.930;2023-11-19T03:39:09;98995.58;;;11.59;78.69
60642;BME280;46837;52.446;-1.930;2023-11-19T03:40:09;98991.38;;;11.58;78.82
60642;BME280;46837;52.446;-1.930;2023-11-19T03:41:14;98989.18;;;11.57;79.07
60642;BME280;46837;52.446;-1.930;2023-11-19T03:42:09;98993.87;;;11.58;79.22
60642;BME280;46837;52.446;-1.930;2023-11-19T03:43:09;98982.99;;;11.57;79.28
60642;BME280;46837;52.446;-1.930;2023-11-19T03:44:09;98990.70;;;11.57;79.31
60642;BME280;46837;52.446;-1.930;2023-11-19T03:45:09;98985.91;;;11.55;79.47
60642;BME280;46837;52.446;-1.930;2023-11-19T03:46:19;98988.77;;;11.55;79.49
60642;BME280;46837;52.446;-1.930;2023-11-19T03:47:09;98984.66;;;11.55;79.57
60642;BME280;46837;52.446;-1.930;2023-11-19T03:48:09;98981.60;;;11.50;79.75
60642;BME280;46837;52.446;-1.930;2023-11-19T03:49:09;98987.41;;;11.47;79.80
60642;BME280;46837;52.446;-1.930;2023-11-19T03:50:09;98983.97;;;11.49;79.73
60642;BME280;46837;52.446;-1.930;2023-11-19T03:51:09;98979.27;;;11.48;79.77
60642;BME280;46837;52.446;-1.930;2023-11-19T03:52:09;98981.36;;;11.48;79.80
60642;BME280;46837;52.446;-1.930;2023-11-19T03:53:09;98981.03;;;11.48;79.79
60642;BME280;46837;52.446;-1.930;2023-11-19T03:54:09;98982.81;;;11.47;79.82
60642;BME280;46837;52.446;-1.930;2023-11-19T03:55:09;98978.88;;;11.49;79.86
60642;BME280;46837;52.446;-1.930;2023-11-19T03:56:09;98986.05;;;11.46;79.77
60642;BME280;46837;52.446;-1.930;2023-11-19T03:57:09;98983.86;;;11.47;79.92
60642;BME280;46837;52.446;-1.930;2023-11-19T03:58:09;98983.53;;;11.49;79.94
60642;BME280;46837;52.446;-1.930;2023-11-19T03:59:09;98982.76;;;11.50;79.80
60642;BME280;46837;52.446;-1.930;2023-11-19T04:00:12;98979.26;;;11.47;79.98
60642;BME280;46837;52.446;-1.930;2023-11-19T04:01:13;98974.46;;;11.45;79.93
60642;BME280;46837;52.446;-1.930;2023-11-19T04:02:09;98965.75;;;11.47;79.75
60642;BME280;46837;52.446;-1.930;2023-11-19T04:03:09;98965.71;;;11.45;79.75
60642;BME280;46837;52.446;-1.930;2023-11-19T04:04:09;98969.85;;;11.38;79.79
60642;BME280;46837;52.446;-1.930;2023-11-19T04:05:09;98964.87;;;11.38;79.86
60642;BME280;46837;52.446;-1.930;2023-11-19T04:06:09;98964.80;;;11.36;79.68
60642;BME280;46837;52.446;-1.930;2023-11-19T04:07:09;98972.59;;;11.35;79.56
60642;BME280;46837;52.446;-1.930;2023-11-19T04:08:09;98962.86;;;11.32;79.54
60642;BME280;46837;52.446;-1.930;2023-11-19T04:09:09;98958.99;;;11.34;79.48
60642;BME280;46837;52.446;-1.930;2023-11-19T04:10:09;98967.51;;;11.32;79.39
60642;BME280;46837;52.446;-1.930;2023-11-19T04:11:09;98973.18;;;11.33;79.42
60642;BME280;46837;52.446;-1.930;2023-11-19T04:12:09;98958.71;;;11.32;79.25
60642;BME280;46837;52.446;-1.930;2023-11-19T04:13:09;98973.57;;;11.30;79.06
60642;BME280;46837;52.446;-1.930;2023-11-19T04:14:09;98971.95;;;11.28;78.91
60642;BME280;46837;52.446;-1.930;2023-11-19T04:15:09;98978.63;;;11.28;79.08
60642;BME280;46837;52.446;-1.930;2023-11-19T04:16:09;98971.81;;;11.27;78.80
60642;BME280;46837;52.446;-1.930;2023-11-19T04:17:09;98979.72;;;11.28;78.82
60642;BME280;46837;52.446;-1.930;2023-11-19T04:18:09;98980.18;;;11.24;78.82
60642;BME280;46837;52.446;-1.930;2023-11-19T04:19:09;98976.46;;;11.22;78.92
60642;BME280;46837;52.446;-1.930;2023-11-19T04:20:09;98983.35;;;11.22;78.86
60642;BME280;46837;52.446;-1.930;2023-11-19T04:21:09;98980.44;;;11.22;78.85
60642;BME280;46837;52.446;-1.930;2023-11-19T04:22:09;98983.14;;;11.24;78.74
60642;BME280;46837;52.446;-1.930;2023-11-19T04:23:09;98969.58;;;11.18;78.82
60642;BME280;46837;52.446;-1.930;2023-11-19T04:24:09;98978.27;;;11.16;78.84
60642;BME280;46837;52.446;-1.930;2023-11-19T04:25:09;98976.82;;;11.14;78.95
60642;BME280;46837;52.446;-1.930;2023-11-19T04:26:09;98981.75;;;11.13;78.89
60642;BME280;46837;52.446;-1.930;2023-11-19T04:27:09;98988.91;;;11.10;78.94
60642;BME280;46837;52.446;-1.930;2023-11-19T04:28:09;98974.97;;;11.10;78.88
60642;BME280;46837;52.446;-1.930;2023-11-19T04:29:09;98984.00;;;11.04;78.98
60642;BME280;46837;52.446;-1.930;2023-11-19T04:30:09;98984.45;;;11.06;78.98
60642;BME280;46837;52.446;-1.930;2023-11-19T04:31:09;98982.03;;;11.07;78.96
60642;BME280;46837;52.446;-1.930;2023-11-19T04:32:09;98983.94;;;11.07;78.86
60642;BME280;46837;52.446;-1.930;2023-11-19T04:33:09;98980.01;;;11.09;78.93
60642;BME280;46837;52.446;-1.930;2023-11-19T04:34:09;98981.49;;;11.09;78.90
60642;BME280;46837;52.446;-1.930;2023-11-19T04:35:09;98979.60;;;11.09;78.93
60642;BME280;46837;52.446;-1.930;2023-11-19T04:36:09;98967.79;;;11.12;78.88
60642;BME280;46837;52.446;-1.930;2023-11-19T04:37:09;98977.15;;;11.08;79.27
60642;BME280;46837;52.446;-1.930;2023-11-19T04:38:09;98978.67;;;11.09;79.40
60642;BME280;46837;52.446;-1.930;2023-11-19T04:39:13;98977.70;;;11.08;79.77
60642;BME280;46837;52.446;-1.930;2023-11-19T04:40:09;98973.33;;;11.10;79.80
60642;BME280;46837;52.446;-1.930;2023-11-19T04:41:09;98983.43;;;11.11;79.94
60642;BME280;46837;52.446;-1.930;2023-11-19T04:42:09;98977.98;;;11.10;80.25
60642;BME280;46837;52.446;-1.930;2023-11-19T04:43:09;98982.19;;;11.07;80.55
60642;BME280;46837;52.446;-1.930;2023-11-19T04:44:09;98981.29;;;11.02;80.91
60642;BME280;46837;52.446;-1.930;2023-11-19T04:45:09;98977.43;;;11.05;80.87
60642;BME280;46837;52.446;-1.930;2023-11-19T04:46:11;98973.43;;;11.08;80.94
60642;BME280;46837;52.446;-1.930;2023-11-19T04:47:09;98976.83;;;11.07;80.94
60642;BME280;46837;52.446;-1.930;2023-11-19T04:48:09;98985.10;;;11.06;81.09
60642;BME280;46837;52.446;-1.930;2023-11-19T04:49:09;98985.20;;;11.04;81.24
60642;BME280;46837;52.446;-1.930;2023-11-19T04:50:09;98991.64;;;11.05;81.45
60642;BME280;46837;52.446;-1.930;2023-11-19T04:51:09;98995.59;;;11.07;81.39
60642;BME280;46837;52.446;-1.930;2023-11-19T04:52:09;98988.27;;;11.06;81.62
60642;BME280;46837;52.446;-1.930;2023-11-19T04:53:09;98990.44;;;11.05;81.87
60642;BME280;46837;52.446;-1.930;2023-11-19T04:54:09;98991.00;;;11.06;82.00
60642;BME280;46837;52.446;-1.930;2023-11-19T04:55:09;98994.10;;;11.08;82.04
60642;BME280;46837;52.446;-1.930;2023-11-19T04:56:09;98994.83;;;11.09;82.05
60642;BME280;46837;52.446;-1.930;2023-11-19T04:57:09;98998.20;;;11.13;82.07
60642;BME280;46837;52.446;-1.930;2023-11-19T04:58:09;99001.25;;;11.14;82.07
60642;BME280;46837;52.446;-1.930;2023-11-19T04:59:11;99003.23;;;11.14;82.36
60642;BME280;46837;52.446;-1.930;2023-11-19T05:00:09;98999.35;;;11.13;82.34
60642;BME280;46837;52.446;-1.930;2023-11-19T05:01:13;98995.58;;;11.08;82.44
60642;BME280;46837;52.446;-1.930;2023-11-19T05:02:09;98999.58;;;11.10;82.57
60642;BME280;46837;52.446;-1.930;2023-11-19T05:03:09;98995.03;;;11.08;82.88
60642;BME280;46837;52.446;-1.930;2023-11-19T05:04:09;99000.95;;;11.04;82.85
60642;BME280;46837;52.446;-1.930;2023-11-19T05:05:09;99003.97;;;11.06;82.76
60642;BME280;46837;52.446;-1.930;2023-11-19T05:06:09;98996.67;;;11.05;82.99
60642;BME280;46837;52.446;-1.930;2023-11-19T05:07:09;98992.98;;;11.03;83.04
60642;BME280;46837;52.446;-1.930;2023-11-19T05:08:09;98976.36;;;11.03;83.14
60642;BME280;46837;52.446;-1.930;2023-11-19T05:09:10;98991.60;;;10.98;83.48
60642;BME280;46837;52.446;-1.930;2023-11-19T05:10:09;98987.79;;;10.99;83.59
60642;BME280;46837;52.446;-1.930;2023-11-19T05:11:09;98985.87;;;10.97;83.79
60642;BME280;46837;52.446;-1.930;2023-11-19T05:12:09;98988.52;;;10.95;84.16
60642;BME280;46837;52.446;-1.930;2023-11-19T05:13:09;98993.05;;;10.89;84.56
60642;BME280;46837;52.446;-1.930;2023-11-19T05:14:09;98990.38;;;10.89;84.73
60642;BME280;46837;52.446;-1.930;2023-11-19T05:15:09;98988.25;;;10.89;84.92